»·PEaware :: QXE2536 KPDX-CYVR

QXE2536 :: KPDX-CYVR

FLIGHT INFORMATION

Flight Status: Arrived
Operator:
Horizon Air
More flights by this operator :: More flights under this callsign
Pilot: Anonymous 27191 (27191)
Aircraft: DEHAVILLAND DASH 8 400
(DH8D)
More flights by this aircraft type
Origin: KPDX Portland Intl
United States
Destination: CYVR Vancouver Intl
Canada
More flights between these airports :: More routes between these airports
Route: +PTLD1 BTG J1 SEA PAE GRIZZ6
File this flight plan on PilotEdge
Remarks: PBN / B2B3B4D2D3S2 DOF / 191211 REG / N407QX RVR / 200 OPR / QXE PER / C
Altitude:
(Current/Filed)
22,000ft
Speed:
(Current/Filed)
284kts
Departed: 10-Dec-19 05:32 PM
Arrived: 10-Dec-19 06:26 PM
Distance/Time
Traveled:
218nm/0:54
Distance/Time
To Go:
Arrived

Flight Plot

Page will automatically refresh every two minutes.


Map Options




Map Legend


Flown Route
Filed Route
Departure Airport
Arrival Airport
Navaid (VOR, NDB)
Fix

Horizontal Profiles

Position Reports

Time Latitude Longitude Heading Altitude Ground
Speed
10-Dec-19 17:01 45.590441 -122.598948 209 37ft 0kts
10-Dec-19 17:02 45.590441 -122.598948 209 37ft 0kts
10-Dec-19 17:03 45.590441 -122.598948 209 37ft 0kts
10-Dec-19 17:04 45.590441 -122.598948 209 37ft 0kts
10-Dec-19 17:05 45.590441 -122.598948 209 37ft 0kts
10-Dec-19 17:06 45.590441 -122.598948 209 37ft 0kts
10-Dec-19 17:07 45.590441 -122.598948 209 37ft 0kts
10-Dec-19 17:08 45.590441 -122.598948 209 37ft 0kts
10-Dec-19 17:09 45.590441 -122.598948 209 37ft 0kts
10-Dec-19 17:10 45.590441 -122.598948 209 37ft 0kts
10-Dec-19 17:11 45.590441 -122.598948 209 37ft 0kts
10-Dec-19 17:12 45.590441 -122.598948 209 37ft 0kts
10-Dec-19 17:13 45.590441 -122.598948 209 37ft 0kts
10-Dec-19 17:14 45.590441 -122.598948 209 37ft 0kts
10-Dec-19 17:14 45.590441 -122.598948 209 37ft 0kts
10-Dec-19 17:16 45.590441 -122.598948 209 37ft 0kts
10-Dec-19 17:17 45.590441 -122.598948 209 37ft 0kts
10-Dec-19 17:17 45.590441 -122.598948 209 37ft 0kts
10-Dec-19 17:18 45.590441 -122.598948 209 37ft 0kts
10-Dec-19 17:20 45.590441 -122.598948 209 37ft 0kts
10-Dec-19 17:20 45.590820 -122.598557 228 37ft 2kts
10-Dec-19 17:21 45.590848 -122.597922 298 37ft 0kts
10-Dec-19 17:23 45.590848 -122.597922 298 37ft 0kts
10-Dec-19 17:23 45.590848 -122.597922 298 37ft 0kts
10-Dec-19 17:24 45.590848 -122.597922 298 37ft 0kts
10-Dec-19 17:25 45.591115 -122.598545 308 37ft 0kts
10-Dec-19 17:26 45.592452 -122.598161 27 37ft 7kts
10-Dec-19 17:27 45.593502 -122.596663 53 37ft 1kts
10-Dec-19 17:28 45.593850 -122.596206 33 37ft 0kts
10-Dec-19 17:29 45.593850 -122.596206 33 37ft 0kts
10-Dec-19 17:30 45.594530 -122.594950 116 37ft 3kts
10-Dec-19 17:31 45.583974 -122.565579 115 953ft 145kts
10-Dec-19 17:32 45.565718 -122.505064 111 3186ft 190kts
10-Dec-19 17:33 45.571453 -122.438947 7 5888ft 203kts
10-Dec-19 17:34 45.620456 -122.481208 314 8509ft 219kts
10-Dec-19 17:35 45.670915 -122.536525 320 10857ft 239kts
10-Dec-19 17:36 45.733358 -122.577034 339 12880ft 257kts
10-Dec-19 17:37 45.807669 -122.584078 358 14534ft 277kts
10-Dec-19 17:38 45.886525 -122.576186 0 15988ft 287kts
10-Dec-19 17:39 45.966600 -122.564597 0 17460ft 290kts
10-Dec-19 17:40 46.046919 -122.552806 359 18805ft 294kts
10-Dec-19 17:41 46.128868 -122.540773 359 20080ft 296kts
10-Dec-19 17:42 46.211455 -122.528763 358 21178ft 301kts
10-Dec-19 17:43 46.296020 -122.516597 358 21924ft 314kts
10-Dec-19 17:44 46.386934 -122.504031 358 21978ft 343kts
10-Dec-19 17:45 46.484616 -122.490366 359 21972ft 362kts
10-Dec-19 17:46 46.585921 -122.475927 359 22085ft 369kts
10-Dec-19 17:47 46.688274 -122.461159 359 22179ft 375kts
10-Dec-19 17:48 46.791659 -122.446215 359 22170ft 380kts
10-Dec-19 17:49 46.896784 -122.430876 359 22167ft 382kts
10-Dec-19 17:50 46.998437 -122.415900 359 22170ft 383kts
10-Dec-19 17:51 47.103562 -122.400342 359 22171ft 384kts
10-Dec-19 17:52 47.199095 -122.386142 359 22171ft 384kts
10-Dec-19 17:53 47.287903 -122.372893 359 22171ft 385kts
10-Dec-19 17:54 47.393467 -122.357180 359 22167ft 386kts
10-Dec-19 17:55 47.496110 -122.341736 359 22166ft 386kts
10-Dec-19 17:56 47.602439 -122.325695 359 22182ft 386kts
10-Dec-19 17:57 47.707450 -122.309837 359 22176ft 387kts
10-Dec-19 17:58 47.813190 -122.293886 359 21760ft 384kts
10-Dec-19 17:59 47.918491 -122.278988 354 20758ft 374kts
10-Dec-19 18:00 48.017273 -122.305712 340 19484ft 362kts
10-Dec-19 18:01 48.115989 -122.334880 342 18050ft 364kts
10-Dec-19 18:02 48.214049 -122.363251 342 16570ft 364kts
10-Dec-19 18:03 48.312441 -122.392079 343 15075ft 359kts
10-Dec-19 18:04 48.409184 -122.420375 343 13540ft 352kts
10-Dec-19 18:05 48.503173 -122.447984 344 12011ft 341kts
10-Dec-19 18:06 48.594280 -122.475008 345 10671ft 328kts
10-Dec-19 18:07 48.679382 -122.500036 345 10032ft 294kts
10-Dec-19 18:08 48.736931 -122.552376 307 9994ft 280kts
10-Dec-19 18:09 48.788392 -122.642272 307 9990ft 284kts
10-Dec-19 18:10 48.840282 -122.732918 307 9989ft 285kts
10-Dec-19 18:11 48.890230 -122.820029 307 9986ft 285kts
10-Dec-19 18:12 48.941493 -122.909766 307 9994ft 284kts
10-Dec-19 18:13 48.993077 -123.000640 307 9986ft 285kts
10-Dec-19 18:14 49.042380 -123.088952 299 9637ft 283kts
10-Dec-19 18:15 49.061566 -123.201074 279 8141ft 267kts
10-Dec-19 18:16 49.075934 -123.305712 280 6633ft 237kts
10-Dec-19 18:17 49.089312 -123.399021 290 5127ft 221kts
10-Dec-19 18:18 49.134566 -123.458305 317 3795ft 218kts
10-Dec-19 18:19 49.183278 -123.509212 4 3018ft 209kts
10-Dec-19 18:20 49.215636 -123.447598 67 2991ft 180kts
10-Dec-19 18:21 49.221606 -123.374813 91 2282ft 168kts
10-Dec-19 18:22 49.217328 -123.305678 98 1378ft 156kts
10-Dec-19 18:23 49.210233 -123.243502 99 589ft 144kts
10-Dec-19 18:24 49.203761 -123.188478 99 22ft 91kts
10-Dec-19 18:25 49.201000 -123.174786 130 22ft 5kts
10-Dec-19 18:26 49.199705 -123.172152 111 22ft 9kts
10-Dec-19 18:27 49.197517 -123.171030 180 22ft 5kts
10-Dec-19 18:28 49.196378 -123.172209 264 22ft 2kts
10-Dec-19 18:29 49.196061 -123.172752 218 21ft 0kts
10-Dec-19 18:30 49.196061 -123.172752 218 21ft 0kts
10-Dec-19 18:31 49.196061 -123.172752 218 21ft 0kts
10-Dec-19 18:32 49.196061 -123.172752 218 21ft 0kts
10-Dec-19 18:33 49.196061 -123.172752 218 21ft 0kts
10-Dec-19 18:34 49.196061 -123.172752 218 21ft 0kts
10-Dec-19 18:35 49.196061 -123.172752 218 21ft 0kts
10-Dec-19 18:36 49.196061 -123.172752 218 21ft 0kts
10-Dec-19 18:37 49.196061 -123.172752 218 21ft 0kts

Navigation Log

Ident Type
Flight plan parsing failed, navigation log unavailable